sensor_id;sensor_type;location;lat;lon;timestamp;temperature;humidity
32728;DHT22;55292;51.844;19.246;2024-02-16T00:00:20;7.40;99.90
32728;DHT22;55292;51.844;19.246;2024-02-16T00:05:43;7.30;99.90
32728;DHT22;55292;51.844;19.246;2024-02-16T00:10:47;7.10;99.90
32728;DHT22;55292;51.844;19.246;2024-02-16T00:15:50;7.00;99.90
32728;DHT22;55292;51.844;19.246;2024-02-16T00:20:52;6.80;99.90
32728;DHT22;55292;51.844;19.246;2024-02-16T00:25:55;6.70;99.90
32728;DHT22;55292;51.844;19.246;2024-02-16T00:30:59;6.60;99.90
32728;DHT22;55292;51.844;19.246;2024-02-16T00:36:02;6.50;99.90
32728;DHT22;55292;51.844;19.246;2024-02-16T00:41:05;6.30;99.90
32728;DHT22;55292;51.844;19.246;2024-02-16T00:46:08;6.20;99.90
32728;DHT22;55292;51.844;19.246;2024-02-16T00:51:10;6.10;99.90
32728;DHT22;55292;51.844;19.246;2024-02-16T00:56:13;5.80;99.90
32728;DHT22;55292;51.844;19.246;2024-02-16T01:01:16;5.70;99.90
32728;DHT22;55292;51.844;19.246;2024-02-16T01:06:19;5.70;99.90
32728;DHT22;55292;51.844;19.246;2024-02-16T01:11:22;8.10;99.90
32728;DHT22;55292;51.844;19.246;2024-02-16T01:16:25;5.80;99.90
32728;DHT22;55292;51.844;19.246;2024-02-16T01:21:27;5.50;99.90
32728;DHT22;55292;51.844;19.246;2024-02-16T01:26:31;5.50;99.90
32728;DHT22;55292;51.844;19.246;2024-02-16T01:31:34;5.20;99.90
32728;DHT22;55292;51.844;19.246;2024-02-16T01:36:38;5.10;99.90
32728;DHT22;55292;51.844;19.246;2024-02-16T01:41:41;5.10;99.90
32728;DHT22;55292;51.844;19.246;2024-02-16T01:46:44;5.10;99.90
32728;DHT22;55292;51.844;19.246;2024-02-16T01:51:46;5.00;99.90
32728;DHT22;55292;51.844;19.246;2024-02-16T01:56:49;5.00;99.90
32728;DHT22;55292;51.844;19.246;2024-02-16T02:01:53;4.90;99.90
32728;DHT22;55292;51.844;19.246;2024-02-16T02:06:55;6.50;99.90
32728;DHT22;55292;51.844;19.246;2024-02-16T02:11:58;4.80;99.90
32728;DHT22;55292;51.844;19.246;2024-02-16T02:17:01;4.90;99.90
32728;DHT22;55292;51.844;19.246;2024-02-16T02:22:03;4.80;99.90
32728;DHT22;55292;51.844;19.246;2024-02-16T02:27:06;4.80;99.90
32728;DHT22;55292;51.844;19.246;2024-02-16T02:32:10;6.40;99.90
32728;DHT22;55292;51.844;19.246;2024-02-16T02:37:12;4.70;99.90
32728;DHT22;55292;51.844;19.246;2024-02-16T02:42:15;4.60;99.90
32728;DHT22;55292;51.844;19.246;2024-02-16T02:47:18;4.60;99.90
32728;DHT22;55292;51.844;19.246;2024-02-16T02:52:21;4.80;99.90
32728;DHT22;55292;51.844;19.246;2024-02-16T02:57:24;4.90;99.90
32728;DHT22;55292;51.844;19.246;2024-02-16T03:02:27;4.90;99.90
32728;DHT22;55292;51.844;19.246;2024-02-16T03:07:29;4.90;99.90
32728;DHT22;55292;51.844;19.246;2024-02-16T03:12:32;4.80;99.90
32728;DHT22;55292;51.844;19.246;2024-02-16T03:17:35;4.70;99.90
32728;DHT22;55292;51.844;19.246;2024-02-16T03:22:38;4.60;99.90
32728;DHT22;55292;51.844;19.246;2024-02-16T03:27:42;4.60;99.90
32728;DHT22;55292;51.844;19.246;2024-02-16T03:32:51;4.50;99.90
32728;DHT22;55292;51.844;19.246;2024-02-16T03:37:54;4.50;99.90
32728;DHT22;55292;51.844;19.246;2024-02-16T03:42:58;4.50;99.90
32728;DHT22;55292;51.844;19.246;2024-02-16T03:48:01;4.50;99.90
32728;DHT22;55292;51.844;19.246;2024-02-16T03:53:04;4.50;99.90
32728;DHT22;55292;51.844;19.246;2024-02-16T03:58:07;4.60;99.90
32728;DHT22;55292;51.844;19.246;2024-02-16T04:03:10;4.60;99.90
32728;DHT22;55292;51.844;19.246;2024-02-16T04:08:13;4.70;99.90
32728;DHT22;55292;51.844;19.246;2024-02-16T04:13:16;4.60;99.90
32728;DHT22;55292;51.844;19.246;2024-02-16T04:18:19;4.60;99.90
32728;DHT22;55292;51.844;19.246;2024-02-16T04:23:22;4.70;99.90
32728;DHT22;55292;51.844;19.246;2024-02-16T04:28:24;4.70;99.90
32728;DHT22;55292;51.844;19.246;2024-02-16T04:33:28;4.70;99.90
32728;DHT22;55292;51.844;19.246;2024-02-16T04:38:31;3.10;99.90
32728;DHT22;55292;51.844;19.246;2024-02-16T04:43:34;4.80;99.90
32728;DHT22;55292;51.844;19.246;2024-02-16T04:48:36;4.80;99.90
32728;DHT22;55292;51.844;19.246;2024-02-16T04:53:39;4.70;99.90
32728;DHT22;55292;51.844;19.246;2024-02-16T04:58:43;4.90;99.90
32728;DHT22;55292;51.844;19.246;2024-02-16T05:03:46;4.90;99.90
32728;DHT22;55292;51.844;19.246;2024-02-16T05:08:48;4.70;99.90
32728;DHT22;55292;51.844;19.246;2024-02-16T05:13:52;4.70;99.90
32728;DHT22;55292;51.844;19.246;2024-02-16T05:18:58;4.80;99.90
32728;DHT22;55292;51.844;19.246;2024-02-16T05:24:01;4.90;99.90
32728;DHT22;55292;51.844;19.246;2024-02-16T05:29:03;4.90;99.90
32728;DHT22;55292;51.844;19.246;2024-02-16T05:34:06;5.00;99.90
32728;DHT22;55292;51.844;19.246;2024-02-16T05:39:09;5.00;99.90
32728;DHT22;55292;51.844;19.246;2024-02-16T05:44:39;5.10;99.90
32728;DHT22;55292;51.844;19.246;2024-02-16T05:49:59;5.20;99.90
32728;DHT22;55292;51.844;19.246;2024-02-16T05:55:19;5.30;99.90
32728;DHT22;55292;51.844;19.246;2024-02-16T06:00:40;5.30;99.90
32728;DHT22;55292;51.844;19.246;2024-02-16T06:06:02;5.30;99.90
32728;DHT22;55292;51.844;19.246;2024-02-16T06:11:22;5.30;99.90
32728;DHT22;55292;51.844;19.246;2024-02-16T06:16:27;5.50;99.90
32728;DHT22;55292;51.844;19.246;2024-02-16T06:21:30;5.50;99.90
32728;DHT22;55292;51.844;19.246;2024-02-16T06:26:32;5.60;99.90
32728;DHT22;55292;51.844;19.246;2024-02-16T06:31:35;5.70;99.90
32728;DHT22;55292;51.844;19.246;2024-02-16T06:36:38;5.80;99.90
32728;DHT22;55292;51.844;19.246;2024-02-16T06:41:44;5.80;99.90
32728;DHT22;55292;51.844;19.246;2024-02-16T06:46:52;8.40;99.90
32728;DHT22;55292;51.844;19.246;2024-02-16T06:51:54;6.20;99.90
32728;DHT22;55292;51.844;19.246;2024-02-16T06:56:58;6.20;99.90
32728;DHT22;55292;51.844;19.246;2024-02-16T07:02:01;6.40;99.90
32728;DHT22;55292;51.844;19.246;2024-02-16T07:07:03;6.60;99.90
32728;DHT22;55292;51.844;19.246;2024-02-16T07:12:08;6.70;99.90
32728;DHT22;55292;51.844;19.246;2024-02-16T07:17:11;6.90;99.90
32728;DHT22;55292;51.844;19.246;2024-02-16T07:22:25;7.00;99.90
32728;DHT22;55292;51.844;19.246;2024-02-16T07:27:28;7.00;99.90
32728;DHT22;55292;51.844;19.246;2024-02-16T07:32:31;7.00;99.90
32728;DHT22;55292;51.844;19.246;2024-02-16T07:37:33;6.90;99.90
32728;DHT22;55292;51.844;19.246;2024-02-16T07:42:39;6.90;99.90
32728;DHT22;55292;51.844;19.246;2024-02-16T07:47:42;6.80;99.90
32728;DHT22;55292;51.844;19.246;2024-02-16T07:52:45;6.80;99.90
32728;DHT22;55292;51.844;19.246;2024-02-16T07:57:48;6.70;99.90
32728;DHT22;55292;51.844;19.246;2024-02-16T08:02:51;6.70;99.90
32728;DHT22;55292;51.844;19.246;2024-02-16T08:07:54;6.90;99.90
32728;DHT22;55292;51.844;19.246;2024-02-16T08:12:58;7.30;99.90
32728;DHT22;55292;51.844;19.246;2024-02-16T08:18:01;7.60;99.90
32728;DHT22;55292;51.844;19.246;2024-02-16T08:23:04;7.90;99.90
32728;DHT22;55292;51.844;19.246;2024-02-16T08:28:06;8.30;99.90
32728;DHT22;55292;51.844;19.246;2024-02-16T08:33:12;8.60;99.90
32728;DHT22;55292;51.844;19.246;2024-02-16T08:38:18;8.90;99.90
32728;DHT22;55292;51.844;19.246;2024-02-16T08:43:20;9.10;99.90
32728;DHT22;55292;51.844;19.246;2024-02-16T08:48:24;11.10;99.90
32728;DHT22;55292;51.844;19.246;2024-02-16T08:53:27;9.60;99.90
32728;DHT22;55292;51.844;19.246;2024-02-16T08:58:30;9.70;99.90
32728;DHT22;55292;51.844;19.246;2024-02-16T09:03:33;10.10;99.90
32728;DHT22;55292;51.844;19.246;2024-02-16T09:08:41;11.30;99.90
32728;DHT22;55292;51.844;19.246;2024-02-16T09:13:43;10.30;99.90
32728;DHT22;55292;51.844;19.246;2024-02-16T09:18:46;10.40;99.90
32728;DHT22;55292;51.844;19.246;2024-02-16T09:23:52;10.50;99.90
32728;DHT22;55292;51.844;19.246;2024-02-16T09:28:56;10.50;99.90
32728;DHT22;55292;51.844;19.246;2024-02-16T09:33:59;10.70;99.90
32728;DHT22;55292;51.844;19.246;2024-02-16T09:39:02;10.80;99.90
32728;DHT22;55292;51.844;19.246;2024-02-16T09:44:05;10.90;99.90
32728;DHT22;55292;51.844;19.246;2024-02-16T09:49:09;11.00;99.90
32728;DHT22;55292;51.844;19.246;2024-02-16T09:54:12;11.00;99.90
32728;DHT22;55292;51.844;19.246;2024-02-16T09:59:15;11.10;99.90
32728;DHT22;55292;51.844;19.246;2024-02-16T10:04:18;12.10;99.90
32728;DHT22;55292;51.844;19.246;2024-02-16T10:09:28;11.20;99.90
32728;DHT22;55292;51.844;19.246;2024-02-16T10:14:35;11.40;99.90
32728;DHT22;55292;51.844;19.246;2024-02-16T10:19:38;11.50;99.90
32728;DHT22;55292;51.844;19.246;2024-02-16T10:24:45;11.60;99.90
32728;DHT22;55292;51.844;19.246;2024-02-16T10:29:48;11.60;99.90
32728;DHT22;55292;51.844;19.246;2024-02-16T10:34:54;11.70;99.90
32728;DHT22;55292;51.844;19.246;2024-02-16T10:40:02;11.80;99.90
32728;DHT22;55292;51.844;19.246;2024-02-16T10:45:06;12.10;99.90
32728;DHT22;55292;51.844;19.246;2024-02-16T10:50:09;12.20;99.90
32728;DHT22;55292;51.844;19.246;2024-02-16T10:55:13;12.30;99.90
32728;DHT22;55292;51.844;19.246;2024-02-16T11:00:19;12.50;99.90
32728;DHT22;55292;51.844;19.246;2024-02-16T11:05:35;12.50;99.90
32728;DHT22;55292;51.844;19.246;2024-02-16T11:10:39;12.60;99.90
32728;DHT22;55292;51.844;19.246;2024-02-16T11:15:41;12.50;99.90
32728;DHT22;55292;51.844;19.246;2024-02-16T11:20:44;12.70;99.90
32728;DHT22;55292;51.844;19.246;2024-02-16T11:25:50;12.70;99.90
32728;DHT22;55292;51.844;19.246;2024-02-16T11:30:53;12.80;99.90
32728;DHT22;55292;51.844;19.246;2024-02-16T11:36:02;12.80;99.90
32728;DHT22;55292;51.844;19.246;2024-02-16T11:41:07;12.80;99.90
32728;DHT22;55292;51.844;19.246;2024-02-16T11:46:13;12.90;99.90
32728;DHT22;55292;51.844;19.246;2024-02-16T11:51:16;13.10;99.90
32728;DHT22;55292;51.844;19.246;2024-02-16T11:56:23;13.10;99.90
32728;DHT22;55292;51.844;19.246;2024-02-16T12:01:27;13.10;99.90
32728;DHT22;55292;51.844;19.246;2024-02-16T12:06:30;13.20;99.90
32728;DHT22;55292;51.844;19.246;2024-02-16T12:11:33;13.10;99.90
32728;DHT22;55292;51.844;19.246;2024-02-16T12:16:38;15.60;99.90
32728;DHT22;55292;51.844;19.246;2024-02-16T12:21:41;13.10;99.90
32728;DHT22;55292;51.844;19.246;2024-02-16T12:26:44;13.20;99.90
32728;DHT22;55292;51.844;19.246;2024-02-16T12:31:47;13.30;99.90
32728;DHT22;55292;51.844;19.246;2024-02-16T12:36:52;13.30;99.90
32728;DHT22;55292;51.844;19.246;2024-02-16T12:41:55;13.40;99.90
32728;DHT22;55292;51.844;19.246;2024-02-16T12:46:57;13.40;99.90
32728;DHT22;55292;51.844;19.246;2024-02-16T12:52:04;13.80;99.90
32728;DHT22;55292;51.844;19.246;2024-02-16T12:57:14;13.50;99.90
32728;DHT22;55292;51.844;19.246;2024-02-16T13:02:26;14.00;99.90
32728;DHT22;55292;51.844;19.246;2024-02-16T13:07:40;13.70;99.90
32728;DHT22;55292;51.844;19.246;2024-02-16T13:12:44;13.70;99.90
32728;DHT22;55292;51.844;19.246;2024-02-16T13:17:49;13.70;99.90
32728;DHT22;55292;51.844;19.246;2024-02-16T13:22:52;13.70;99.90
32728;DHT22;55292;51.844;19.246;2024-02-16T13:27:56;13.70;99.90
32728;DHT22;55292;51.844;19.246;2024-02-16T13:32:59;13.80;99.90
32728;DHT22;55292;51.844;19.246;2024-02-16T13:38:03;13.90;99.90
32728;DHT22;55292;51.844;19.246;2024-02-16T13:43:06;13.80;99.90
32728;DHT22;55292;51.844;19.246;2024-02-16T13:48:27;13.80;99.90
32728;DHT22;55292;51.844;19.246;2024-02-16T13:53:51;13.80;99.90
32728;DHT22;55292;51.844;19.246;2024-02-16T13:59:13;13.80;99.90
32728;DHT22;55292;51.844;19.246;2024-02-16T14:04:35;13.80;99.90
32728;DHT22;55292;51.844;19.246;2024-02-16T14:10:12;13.70;99.90
32728;DHT22;55292;51.844;19.246;2024-02-16T14:15:36;14.10;99.90
32728;DHT22;55292;51.844;19.246;2024-02-16T14:20:57;13.60;99.90
32728;DHT22;55292;51.844;19.246;2024-02-16T14:26:32;13.60;99.90
32728;DHT22;55292;51.844;19.246;2024-02-16T14:31:36;13.50;99.90
32728;DHT22;55292;51.844;19.246;2024-02-16T14:36:56;13.40;99.90
32728;DHT22;55292;51.844;19.246;2024-02-16T14:42:00;13.30;99.90
32728;DHT22;55292;51.844;19.246;2024-02-16T14:47:03;13.20;99.90
32728;DHT22;55292;51.844;19.246;2024-02-16T14:52:09;13.10;99.90
32728;DHT22;55292;51.844;19.246;2024-02-16T14:57:13;13.30;99.90
32728;DHT22;55292;51.844;19.246;2024-02-16T15:02:15;13.00;99.90
32728;DHT22;55292;51.844;19.246;2024-02-16T15:07:19;12.90;99.90
32728;DHT22;55292;51.844;19.246;2024-02-16T15:12:23;12.80;99.90
32728;DHT22;55292;51.844;19.246;2024-02-16T15:17:27;12.70;99.90
32728;DHT22;55292;51.844;19.246;2024-02-16T15:22:32;12.60;99.90
32728;DHT22;55292;51.844;19.246;2024-02-16T15:27:50;12.30;99.90
32728;DHT22;55292;51.844;19.246;2024-02-16T15:32:56;12.10;99.90
32728;DHT22;55292;51.844;19.246;2024-02-16T15:37:59;11.80;99.90
32728;DHT22;55292;51.844;19.246;2024-02-16T15:43:04;11.70;99.90
32728;DHT22;55292;51.844;19.246;2024-02-16T15:48:10;11.50;99.90
32728;DHT22;55292;51.844;19.246;2024-02-16T15:53:15;11.20;99.90
32728;DHT22;55292;51.844;19.246;2024-02-16T15:58:18;12.60;99.90
32728;DHT22;55292;51.844;19.246;2024-02-16T16:03:24;11.40;99.90
32728;DHT22;55292;51.844;19.246;2024-02-16T16:08:27;10.60;99.90
32728;DHT22;55292;51.844;19.246;2024-02-16T16:13:30;10.40;99.90
32728;DHT22;55292;51.844;19.246;2024-02-16T16:18:38;10.30;99.90
32728;DHT22;55292;51.844;19.246;2024-02-16T16:23:41;10.10;99.90
32728;DHT22;55292;51.844;19.246;2024-02-16T16:28:45;10.00;99.90
32728;DHT22;55292;51.844;19.246;2024-02-16T16:33:49;9.80;99.90
32728;DHT22;55292;51.844;19.246;2024-02-16T16:38:53;9.70;99.90
32728;DHT22;55292;51.844;19.246;2024-02-16T16:44:00;9.60;99.90
32728;DHT22;55292;51.844;19.246;2024-02-16T16:49:03;9.50;99.90
32728;DHT22;55292;51.844;19.246;2024-02-16T16:54:12;9.40;99.90
32728;DHT22;55292;51.844;19.246;2024-02-16T16:59:17;9.40;99.90
32728;DHT22;55292;51.844;19.246;2024-02-16T17:04:21;9.10;99.90
32728;DHT22;55292;51.844;19.246;2024-02-16T17:09:34;8.90;99.90
32728;DHT22;55292;51.844;19.246;2024-02-16T17:14:39;9.00;99.90
32728;DHT22;55292;51.844;19.246;2024-02-16T17:19:43;10.20;99.90
32728;DHT22;55292;51.844;19.246;2024-02-16T17:24:48;9.10;99.90
32728;DHT22;55292;51.844;19.246;2024-02-16T17:29:52;8.70;99.90
32728;DHT22;55292;51.844;19.246;2024-02-16T17:34:54;8.70;99.90
32728;DHT22;55292;51.844;19.246;2024-02-16T17:39:59;8.80;99.90
32728;DHT22;55292;51.844;19.246;2024-02-16T17:45:08;8.60;99.90
32728;DHT22;55292;51.844;19.246;2024-02-16T17:50:12;8.60;99.90
32728;DHT22;55292;51.844;19.246;2024-02-16T17:55:18;8.50;99.90
32728;DHT22;55292;51.844;19.246;2024-02-16T18:00:21;8.50;99.90
32728;DHT22;55292;51.844;19.246;2024-02-16T18:05:25;8.60;99.90
32728;DHT22;55292;51.844;19.246;2024-02-16T18:10:29;8.60;99.90
32728;DHT22;55292;51.844;19.246;2024-02-16T18:15:50;8.70;99.90
32728;DHT22;55292;51.844;19.246;2024-02-16T18:20:57;8.70;99.90
32728;DHT22;55292;51.844;19.246;2024-02-16T18:26:01;8.70;99.90
32728;DHT22;55292;51.844;19.246;2024-02-16T18:31:04;8.80;99.90
32728;DHT22;55292;51.844;19.246;2024-02-16T18:36:08;8.70;99.90
32728;DHT22;55292;51.844;19.246;2024-02-16T18:41:11;8.70;99.90
32728;DHT22;55292;51.844;19.246;2024-02-16T18:46:14;8.70;99.90
32728;DHT22;55292;51.844;19.246;2024-02-16T18:51:27;10.00;99.90
32728;DHT22;55292;51.844;19.246;2024-02-16T18:56:48;8.90;99.90
32728;DHT22;55292;51.844;19.246;2024-02-16T19:01:51;8.90;99.90
32728;DHT22;55292;51.844;19.246;2024-02-16T19:06:56;10.00;99.90
32728;DHT22;55292;51.844;19.246;2024-02-16T19:12:02;6.60;99.90
32728;DHT22;55292;51.844;19.246;2024-02-16T19:17:09;8.60;99.90
32728;DHT22;55292;51.844;19.246;2024-02-16T19:22:11;8.70;99.90
32728;DHT22;55292;51.844;19.246;2024-02-16T19:27:15;8.70;99.90
32728;DHT22;55292;51.844;19.246;2024-02-16T19:32:29;9.70;99.90
32728;DHT22;55292;51.844;19.246;2024-02-16T19:37:32;10.30;99.90
32728;DHT22;55292;51.844;19.246;2024-02-16T19:42:39;8.80;99.90
32728;DHT22;55292;51.844;19.246;2024-02-16T19:47:49;8.80;99.90
32728;DHT22;55292;51.844;19.246;2024-02-16T19:52:52;9.90;99.90
32728;DHT22;55292;51.844;19.246;2024-02-16T19:57:55;10.70;99.90
32728;DHT22;55292;51.844;19.246;2024-02-16T20:02:59;9.10;99.90
32728;DHT22;55292;51.844;19.246;2024-02-16T20:08:14;9.20;99.90
32728;DHT22;55292;51.844;19.246;2024-02-16T20:13:18;9.20;99.90
32728;DHT22;55292;51.844;19.246;2024-02-16T20:18:22;9.30;99.90
32728;DHT22;55292;51.844;19.246;2024-02-16T20:23:59;9.30;99.90
32728;DHT22;55292;51.844;19.246;2024-02-16T20:29:04;9.40;99.90
32728;DHT22;55292;51.844;19.246;2024-02-16T20:34:11;9.30;99.90
32728;DHT22;55292;51.844;19.246;2024-02-16T20:39:16;9.40;99.90
32728;DHT22;55292;51.844;19.246;2024-02-16T20:44:19;9.40;99.90
32728;DHT22;55292;51.844;19.246;2024-02-16T20:49:22;10.60;99.90
32728;DHT22;55292;51.844;19.246;2024-02-16T20:54:27;10.10;99.90
32728;DHT22;55292;51.844;19.246;2024-02-16T20:59:39;9.30;99.90
32728;DHT22;55292;51.844;19.246;2024-02-16T21:04:42;10.10;99.90
32728;DHT22;55292;51.844;19.246;2024-02-16T21:09:58;9.20;99.90
32728;DHT22;55292;51.844;19.246;2024-02-16T21:15:04;9.10;99.90
32728;DHT22;55292;51.844;19.246;2024-02-16T21:20:08;9.10;99.90
32728;DHT22;55292;51.844;19.246;2024-02-16T21:25:11;9.00;99.90
32728;DHT22;55292;51.844;19.246;2024-02-16T21:30:20;9.00;99.90
32728;DHT22;55292;51.844;19.246;2024-02-16T21:35:30;9.00;99.90
32728;DHT22;55292;51.844;19.246;2024-02-16T21:40:37;8.90;99.90
32728;DHT22;55292;51.844;19.246;2024-02-16T21:45:42;9.50;99.90
32728;DHT22;55292;51.844;19.246;2024-02-16T21:50:46;9.00;99.90
32728;DHT22;55292;51.844;19.246;2024-02-16T21:55:55;9.00;99.90
32728;DHT22;55292;51.844;19.246;2024-02-16T22:01:03;9.10;99.90
32728;DHT22;55292;51.844;19.246;2024-02-16T22:06:20;9.10;99.90
32728;DHT22;55292;51.844;19.246;2024-02-16T22:11:25;12.50;99.90
32728;DHT22;55292;51.844;19.246;2024-02-16T22:16:31;9.20;99.90
32728;DHT22;55292;51.844;19.246;2024-02-16T22:21:38;10.00;99.90
32728;DHT22;55292;51.844;19.246;2024-02-16T22:26:57;9.10;99.90
32728;DHT22;55292;51.844;19.246;2024-02-16T22:32:02;9.10;99.90
32728;DHT22;55292;51.844;19.246;2024-02-16T22:37:27;9.10;99.90
32728;DHT22;55292;51.844;19.246;2024-02-16T22:42:36;9.00;99.90
32728;DHT22;55292;51.844;19.246;2024-02-16T22:47:43;9.10;99.90
32728;DHT22;55292;51.844;19.246;2024-02-16T22:52:50;9.00;99.90
32728;DHT22;55292;51.844;19.246;2024-02-16T22:57:59;9.00;99.90
32728;DHT22;55292;51.844;19.246;2024-02-16T23:03:03;9.00;99.90
32728;DHT22;55292;51.844;19.246;2024-02-16T23:08:09;9.00;99.90
32728;DHT22;55292;51.844;19.246;2024-02-16T23:13:14;9.00;99.90
32728;DHT22;55292;51.844;19.246;2024-02-16T23:18:17;9.10;99.90
32728;DHT22;55292;51.844;19.246;2024-02-16T23:23:20;10.50;99.90
32728;DHT22;55292;51.844;19.246;2024-02-16T23:28:26;9.10;99.90
32728;DHT22;55292;51.844;19.246;2024-02-16T23:33:29;9.20;99.90
32728;DHT22;55292;51.844;19.246;2024-02-16T23:38:35;9.20;99.90
32728;DHT22;55292;51.844;19.246;2024-02-16T23:43:46;9.20;99.90
32728;DHT22;55292;51.844;19.246;2024-02-16T23:48:57;9.30;99.90
32728;DHT22;55292;51.844;19.246;2024-02-16T23:54:00;9.30;99.90
32728;DHT22;55292;51.844;19.246;2024-02-16T23:59:04;9.30;99.90
